createdAt,value
2023-04-26T00:00:27.064Z,1003.03
2023-04-26T00:01:27.054Z,1003.06
2023-04-26T00:02:27.169Z,1003.10
2023-04-26T00:03:27.169Z,1003.07
2023-04-26T00:04:27.277Z,1003.06
2023-04-26T00:05:27.135Z,1003.05
2023-04-26T00:06:26.991Z,1003.05
2023-04-26T00:07:26.992Z,1003.00
2023-04-26T00:08:26.974Z,1002.95
2023-04-26T00:09:26.984Z,1003.04
2023-04-26T00:10:26.955Z,1003.00
2023-04-26T00:11:26.926Z,1002.99
2023-04-26T00:12:26.911Z,1002.94
2023-04-26T00:13:26.931Z,1003.01
2023-04-26T00:14:26.880Z,1002.96
2023-04-26T00:15:26.885Z,1003.03
2023-04-26T00:16:26.941Z,1003.01
2023-04-26T00:17:26.857Z,1003.05
2023-04-26T00:18:26.835Z,1003.06
2023-04-26T00:19:26.841Z,1003.09
2023-04-26T00:20:26.811Z,1003.10
2023-04-26T00:21:26.797Z,1003.11
2023-04-26T00:22:26.781Z,1003.14
2023-04-26T00:23:26.771Z,1003.12
2023-04-26T00:24:26.794Z,1003.10
2023-04-26T00:25:26.761Z,1003.04
2023-04-26T00:26:26.760Z,1003.10
2023-04-26T00:27:26.718Z,1003.09
2023-04-26T00:28:26.702Z,1003.14
2023-04-26T00:29:26.703Z,1003.12
2023-04-26T00:30:26.673Z,1003.15
2023-04-26T00:31:26.705Z,1003.17
2023-04-26T00:32:26.676Z,1003.21
2023-04-26T00:33:26.655Z,1003.15
2023-04-26T00:34:26.635Z,1003.19
2023-04-26T00:35:26.619Z,1003.17
2023-04-26T00:36:26.596Z,1003.19
2023-04-26T00:37:26.596Z,1003.17
2023-04-26T00:38:26.596Z,1003.21
2023-04-26T00:39:26.579Z,1003.18
2023-04-26T00:40:26.551Z,1003.16
2023-04-26T00:41:26.572Z,1003.22
2023-04-26T00:42:26.532Z,1003.14
2023-04-26T00:43:26.532Z,1003.17
2023-04-26T00:44:26.494Z,1003.20
2023-04-26T00:45:26.535Z,1003.23
2023-04-26T00:46:26.710Z,1003.21
2023-04-26T00:47:26.504Z,1003.25
2023-04-26T00:48:26.461Z,1003.23
2023-04-26T00:49:26.431Z,1003.16
2023-04-26T00:50:26.434Z,1003.23
2023-04-26T00:51:26.407Z,1003.27
2023-04-26T00:52:26.402Z,1003.22
2023-04-26T00:53:26.398Z,1003.28
2023-04-26T00:54:26.367Z,1003.22
2023-04-26T00:55:26.388Z,1003.27
2023-04-26T00:56:26.345Z,1003.28
2023-04-26T00:57:26.356Z,1003.25
2023-04-26T00:58:26.335Z,1003.29
2023-04-26T00:59:26.328Z,1003.24
2023-04-26T01:00:26.291Z,1003.27
2023-04-26T01:01:26.395Z,1003.27
2023-04-26T01:02:26.460Z,1003.29
2023-04-26T01:03:26.366Z,1003.34
2023-04-26T01:04:26.397Z,1003.29
2023-04-26T01:05:26.237Z,1003.27
2023-04-26T01:06:26.209Z,1003.28
2023-04-26T01:07:26.199Z,1003.24
2023-04-26T01:08:26.208Z,1003.38
2023-04-26T01:09:26.182Z,1003.36
2023-04-26T01:10:26.164Z,1003.35
2023-04-26T01:11:26.162Z,1003.38
2023-04-26T01:12:26.130Z,1003.38
2023-04-26T01:13:26.154Z,1003.40
2023-04-26T01:14:26.107Z,1003.38
2023-04-26T01:15:26.096Z,1003.36
2023-04-26T01:16:26.109Z,1003.37
2023-04-26T01:17:26.117Z,1003.34
2023-04-26T01:18:26.067Z,1003.37
2023-04-26T01:19:26.067Z,1003.41
2023-04-26T01:20:26.053Z,1003.33
2023-04-26T01:21:26.017Z,1003.38
2023-04-26T01:22:26.004Z,1003.36
2023-04-26T01:23:26.017Z,1003.39
2023-04-26T01:24:25.974Z,1003.37
2023-04-26T01:25:25.975Z,1003.33
2023-04-26T01:26:25.951Z,1003.37
2023-04-26T01:27:25.939Z,1003.36
2023-04-26T01:28:25.920Z,1003.28
2023-04-26T01:29:25.950Z,1003.33
2023-04-26T01:30:25.902Z,1003.35
2023-04-26T01:31:25.923Z,1003.29
2023-04-26T01:32:25.945Z,1003.33
2023-04-26T01:33:25.861Z,1003.23
2023-04-26T01:34:25.862Z,1003.30
2023-04-26T01:35:25.834Z,1003.22
2023-04-26T01:36:25.821Z,1003.27
2023-04-26T01:37:25.814Z,1003.28
2023-04-26T01:38:25.802Z,1003.31
2023-04-26T01:39:25.797Z,1003.23
2023-04-26T01:40:25.774Z,1003.25
2023-04-26T01:41:25.751Z,1003.22
2023-04-26T01:42:25.744Z,1003.23
2023-04-26T01:43:25.741Z,1003.20
2023-04-26T01:44:25.731Z,1003.15
2023-04-26T01:45:25.724Z,1003.18
2023-04-26T01:46:25.761Z,1003.16
2023-04-26T01:47:25.726Z,1003.18
2023-04-26T01:48:25.663Z,1003.16
2023-04-26T01:49:25.666Z,1003.14
2023-04-26T01:50:25.651Z,1003.11
2023-04-26T01:51:25.626Z,1003.12
2023-04-26T01:52:25.612Z,1003.14
2023-04-26T01:53:25.606Z,1003.17
2023-04-26T01:54:25.635Z,1003.13
2023-04-26T01:55:25.572Z,1003.16
2023-04-26T01:56:25.557Z,1003.12
2023-04-26T01:57:25.549Z,1003.22
2023-04-26T01:58:25.530Z,1003.22
2023-04-26T01:59:25.544Z,1003.17
2023-04-26T02:00:25.517Z,1003.25
2023-04-26T02:01:25.611Z,1003.28
2023-04-26T02:02:25.504Z,1003.31
2023-04-26T02:03:25.540Z,1003.25
2023-04-26T02:04:25.477Z,1003.36
2023-04-26T02:05:25.521Z,1003.33
2023-04-26T02:06:25.444Z,1003.33
2023-04-26T02:07:25.419Z,1003.30
2023-04-26T02:08:25.403Z,1003.29
2023-04-26T02:09:25.404Z,1003.26
2023-04-26T02:10:25.394Z,1003.34
2023-04-26T02:11:25.390Z,1003.32
2023-04-26T02:12:25.352Z,1003.32
2023-04-26T02:13:25.340Z,1003.35
2023-04-26T02:14:25.353Z,1003.34
2023-04-26T02:15:25.313Z,1003.36
2023-04-26T02:16:25.486Z,1003.37
2023-04-26T02:17:25.315Z,1003.33
2023-04-26T02:18:25.288Z,1003.34
2023-04-26T02:19:25.280Z,1003.34
2023-04-26T02:20:25.261Z,1003.34
2023-04-26T02:21:25.240Z,1003.36
2023-04-26T02:22:25.223Z,1003.35
2023-04-26T02:23:25.218Z,1003.32
2023-04-26T02:24:25.244Z,1003.35
2023-04-26T02:25:25.207Z,1003.37
2023-04-26T02:26:25.175Z,1003.30
2023-04-26T02:27:25.161Z,1003.33
2023-04-26T02:28:25.151Z,1003.35
2023-04-26T02:29:42.099Z,1003.38
2023-04-26T02:30:26.138Z,1003.37
2023-04-26T02:31:25.251Z,1003.35
2023-04-26T02:32:25.124Z,1003.34
2023-04-26T02:33:25.221Z,1003.30
2023-04-26T02:34:25.096Z,1003.40
2023-04-26T02:35:25.068Z,1003.33
2023-04-26T02:36:25.161Z,1003.36
2023-04-26T02:37:25.032Z,1003.29
2023-04-26T02:38:25.021Z,1003.38
2023-04-26T02:39:25.022Z,1003.37
2023-04-26T02:40:24.995Z,1003.36
2023-04-26T02:41:24.986Z,1003.41
2023-04-26T02:42:24.979Z,1003.38
2023-04-26T02:43:24.957Z,1003.36
2023-04-26T02:44:24.971Z,1003.31
2023-04-26T02:45:24.930Z,1003.32
2023-04-26T02:46:24.934Z,1003.30
2023-04-26T02:47:24.969Z,1003.37
2023-04-26T02:48:24.891Z,1003.28
2023-04-26T02:49:24.955Z,1003.32
2023-04-26T02:50:24.883Z,1003.28
2023-04-26T02:51:24.856Z,1003.33
2023-04-26T02:52:24.840Z,1003.32
2023-04-26T02:53:24.846Z,1003.35
2023-04-26T02:54:24.843Z,1003.30
2023-04-26T02:55:24.807Z,1003.34
2023-04-26T02:56:24.794Z,1003.34
2023-04-26T02:57:24.781Z,1003.31
2023-04-26T02:58:24.794Z,1003.31
2023-04-26T02:59:24.748Z,1003.32
2023-04-26T03:00:24.787Z,1003.30
2023-04-26T03:01:24.785Z,1003.32
2023-04-26T03:02:24.906Z,1003.29
2023-04-26T03:03:24.819Z,1003.29
2023-04-26T03:04:24.723Z,1003.26
2023-04-26T03:05:24.715Z,1003.33
2023-04-26T03:06:24.670Z,1003.24
2023-04-26T03:07:24.647Z,1003.26
2023-04-26T03:08:24.645Z,1003.28
2023-04-26T03:09:24.634Z,1003.28
2023-04-26T03:10:24.605Z,1003.24
2023-04-26T03:11:24.601Z,1003.19
2023-04-26T03:12:24.582Z,1003.26
2023-04-26T03:13:24.569Z,1003.24
2023-04-26T03:14:24.576Z,1003.28
2023-04-26T03:15:24.554Z,1003.30
2023-04-26T03:16:24.570Z,1003.31
2023-04-26T03:17:24.544Z,1003.33
2023-04-26T03:18:24.507Z,1003.26
2023-04-26T03:19:24.512Z,1003.33
2023-04-26T03:20:24.482Z,1003.35
2023-04-26T03:21:24.562Z,1003.28
2023-04-26T03:22:24.463Z,1003.35
2023-04-26T03:23:24.497Z,1003.35
2023-04-26T03:24:24.445Z,1003.33
2023-04-26T03:25:24.419Z,1003.28
2023-04-26T03:26:24.404Z,1003.30
2023-04-26T03:27:24.400Z,1003.31
2023-04-26T03:28:24.386Z,1003.29
2023-04-26T03:29:24.379Z,1003.32
2023-04-26T03:30:24.354Z,1003.29
2023-04-26T03:31:24.375Z,1003.33
2023-04-26T03:32:24.332Z,1003.31
2023-04-26T03:33:24.324Z,1003.38
2023-04-26T03:34:24.320Z,1003.36
2023-04-26T03:35:24.294Z,1003.38
2023-04-26T03:36:24.292Z,1003.34
2023-04-26T03:37:24.285Z,1003.36
2023-04-26T03:38:24.257Z,1003.36
2023-04-26T03:39:24.252Z,1003.41
2023-04-26T03:40:24.229Z,1003.42
2023-04-26T03:41:24.214Z,1003.42
2023-04-26T03:42:24.204Z,1003.44
2023-04-26T03:43:24.191Z,1003.38
2023-04-26T03:44:24.195Z,1003.33
2023-04-26T03:45:24.165Z,1003.38
2023-04-26T03:46:24.232Z,1003.35
2023-04-26T03:47:24.188Z,1003.36
2023-04-26T03:48:24.141Z,1003.35
2023-04-26T03:49:24.136Z,1003.35
2023-04-26T03:50:24.106Z,1003.36
2023-04-26T03:51:24.085Z,1003.31
2023-04-26T03:52:24.083Z,1003.32
2023-04-26T03:53:24.081Z,1003.38
2023-04-26T03:54:24.080Z,1003.36
2023-04-26T03:55:24.056Z,1003.40
2023-04-26T03:56:24.041Z,1003.33
2023-04-26T03:57:24.008Z,1003.32
2023-04-26T03:58:24.000Z,1003.38
2023-04-26T03:59:24.000Z,1003.34
2023-04-26T04:00:23.983Z,1003.37
2023-04-26T04:01:23.958Z,1003.36
2023-04-26T04:02:24.071Z,1003.34
2023-04-26T04:03:24.155Z,1003.32
2023-04-26T04:04:24.169Z,1003.32
2023-04-26T04:05:23.944Z,1003.32
2023-04-26T04:06:23.893Z,1003.37
2023-04-26T04:07:23.883Z,1003.32
2023-04-26T04:08:23.869Z,1003.32
2023-04-26T04:09:23.870Z,1003.38
2023-04-26T04:10:23.870Z,1003.33
2023-04-26T04:11:23.827Z,1003.35
2023-04-26T04:12:23.819Z,1003.42
2023-04-26T04:13:23.805Z,1003.33
2023-04-26T04:14:23.794Z,1003.39
2023-04-26T04:15:23.795Z,1003.36
2023-04-26T04:16:23.983Z,1003.41
2023-04-26T04:17:23.806Z,1003.40
2023-04-26T04:18:23.745Z,1003.37
2023-04-26T04:19:23.726Z,1003.35
2023-04-26T04:20:23.752Z,1003.38
2023-04-26T04:21:23.695Z,1003.37
2023-04-26T04:22:23.686Z,1003.39
2023-04-26T04:23:23.684Z,1003.41
2023-04-26T04:24:23.661Z,1003.41
2023-04-26T04:25:23.804Z,1003.34
2023-04-26T04:26:23.643Z,1003.34
2023-04-26T04:27:23.632Z,1003.35
2023-04-26T04:28:23.611Z,1003.34
2023-04-26T04:29:23.598Z,1003.35
2023-04-26T04:30:23.602Z,1003.34
2023-04-26T04:31:23.585Z,1003.34
2023-04-26T04:32:23.576Z,1003.39
2023-04-26T04:33:23.546Z,1003.35
2023-04-26T04:34:23.534Z,1003.45
2023-04-26T04:35:23.547Z,1003.42
2023-04-26T04:36:23.517Z,1003.39
2023-04-26T04:37:23.528Z,1003.49
2023-04-26T04:38:23.507Z,1003.47
2023-04-26T04:39:23.472Z,1003.46
2023-04-26T04:40:23.474Z,1003.47
2023-04-26T04:41:23.521Z,1003.46
2023-04-26T04:42:23.443Z,1003.48
2023-04-26T04:43:23.428Z,1003.56
2023-04-26T04:44:23.432Z,1003.51
2023-04-26T04:45:23.436Z,1003.56
2023-04-26T04:46:23.450Z,1003.51
2023-04-26T04:47:23.435Z,1003.56
2023-04-26T04:48:23.389Z,1003.54
2023-04-26T04:49:23.338Z,1003.54
2023-04-26T04:50:23.342Z,1003.53
2023-04-26T04:51:23.316Z,1003.50
2023-04-26T04:52:23.313Z,1003.56
2023-04-26T04:53:23.296Z,1003.57
2023-04-26T04:54:23.278Z,1003.59
2023-04-26T04:55:23.288Z,1003.57
2023-04-26T04:56:23.260Z,1003.63
2023-04-26T04:57:23.266Z,1003.61
2023-04-26T04:58:23.234Z,1003.63
2023-04-26T04:59:23.210Z,1003.74
2023-04-26T05:00:23.222Z,1003.66
2023-04-26T05:01:23.211Z,1003.68
2023-04-26T05:02:23.317Z,1003.65
2023-04-26T05:03:23.285Z,1003.67
2023-04-26T05:04:23.463Z,1003.65
2023-04-26T05:05:23.176Z,1003.69
2023-04-26T05:06:23.125Z,1003.68
2023-04-26T05:07:24.647Z,1003.65
2023-04-26T05:08:23.097Z,1003.72
2023-04-26T05:09:23.095Z,1003.74
2023-04-26T05:10:23.088Z,1003.79
2023-04-26T05:11:23.055Z,1003.83
2023-04-26T05:12:23.047Z,1003.75
2023-04-26T05:13:23.073Z,1003.76
2023-04-26T05:14:23.027Z,1003.75
2023-04-26T05:15:23.031Z,1003.83
2023-04-26T05:16:23.091Z,1003.83
2023-04-26T05:17:23.070Z,1003.84
2023-04-26T05:18:22.994Z,1003.85
2023-04-26T05:19:22.958Z,1003.83
2023-04-26T05:20:22.990Z,1003.94
2023-04-26T05:21:22.944Z,1003.91
2023-04-26T05:22:22.939Z,1003.95
2023-04-26T05:23:22.909Z,1003.91
2023-04-26T05:24:22.901Z,1003.96
2023-04-26T05:25:23.122Z,1003.98
2023-04-26T05:26:22.889Z,1003.95
2023-04-26T05:27:22.869Z,1003.98
2023-04-26T05:28:22.847Z,1003.94
2023-04-26T05:29:22.848Z,1004.01
2023-04-26T05:30:22.820Z,1003.96
2023-04-26T05:31:22.846Z,1003.99
2023-04-26T05:32:22.786Z,1004.00
2023-04-26T05:33:22.775Z,1004.00
2023-04-26T05:34:22.768Z,1003.95
2023-04-26T05:35:22.768Z,1003.95
2023-04-26T05:36:22.743Z,1003.98
2023-04-26T05:37:22.727Z,1003.98
2023-04-26T05:38:22.713Z,1003.99
2023-04-26T05:39:22.692Z,1004.00
2023-04-26T05:40:22.703Z,1003.97
2023-04-26T05:41:22.684Z,1003.97
2023-04-26T05:42:22.708Z,1004.00
2023-04-26T05:43:22.669Z,1004.02
2023-04-26T05:44:22.631Z,1004.01
2023-04-26T05:45:22.648Z,1004.04
2023-04-26T05:46:22.737Z,1004.07
2023-04-26T05:47:22.593Z,1004.06
2023-04-26T05:48:22.591Z,1004.05
2023-04-26T05:49:22.576Z,1004.05
2023-04-26T05:50:22.586Z,1004.06
2023-04-26T05:51:22.578Z,1004.06
2023-04-26T05:52:22.522Z,1004.10
2023-04-26T05:53:22.511Z,1004.05
2023-04-26T05:54:22.499Z,1004.05
2023-04-26T05:55:22.485Z,1004.10
2023-04-26T05:56:22.484Z,1004.05
2023-04-26T05:57:22.485Z,1004.04
2023-04-26T05:58:22.455Z,1004.06
2023-04-26T05:59:22.427Z,1004.09
2023-04-26T06:00:22.438Z,1004.07
2023-04-26T06:01:22.436Z,1004.11
2023-04-26T06:02:22.482Z,1004.10
2023-04-26T06:03:22.605Z,1004.08
2023-04-26T06:04:22.825Z,1004.12
2023-04-26T06:05:22.520Z,1004.15
2023-04-26T06:06:22.351Z,1004.10
2023-04-26T06:07:22.326Z,1004.17
2023-04-26T06:08:22.310Z,1004.19
2023-04-26T06:09:22.295Z,1004.16
2023-04-26T06:10:22.300Z,1004.14
2023-04-26T06:11:22.311Z,1004.08
2023-04-26T06:12:22.264Z,1004.17
2023-04-26T06:13:22.241Z,1004.16
2023-04-26T06:14:29.841Z,1004.16
2023-04-26T06:15:22.263Z,1004.13
2023-04-26T06:16:22.239Z,1004.18
2023-04-26T06:17:22.270Z,1004.15
2023-04-26T06:18:22.185Z,1004.21
2023-04-26T06:19:22.164Z,1004.26
2023-04-26T06:20:22.225Z,1004.18
2023-04-26T06:21:22.159Z,1004.22
2023-04-26T06:22:22.128Z,1004.19
2023-04-26T06:23:22.110Z,1004.29
2023-04-26T06:24:22.120Z,1004.32
2023-04-26T06:25:22.096Z,1004.29
2023-04-26T06:26:22.089Z,1004.26
2023-04-26T06:27:22.059Z,1004.31
2023-04-26T06:28:22.061Z,1004.32
2023-04-26T06:29:22.035Z,1004.29
2023-04-26T06:30:22.029Z,1004.34
2023-04-26T06:31:22.127Z,1004.33
2023-04-26T06:32:22.027Z,1004.35
2023-04-26T06:33:21.998Z,1004.39
2023-04-26T06:34:21.967Z,1004.37
2023-04-26T06:35:21.955Z,1004.33
2023-04-26T06:36:21.951Z,1004.34
2023-04-26T06:37:21.927Z,1004.34
2023-04-26T06:38:21.915Z,1004.36
2023-04-26T06:39:21.898Z,1004.29
2023-04-26T06:40:21.896Z,1004.37
2023-04-26T06:41:21.891Z,1004.39
2023-04-26T06:42:21.866Z,1004.39
2023-04-26T06:43:21.853Z,1004.46
2023-04-26T06:44:21.832Z,1004.46
2023-04-26T06:45:21.823Z,1004.46
2023-04-26T06:46:21.919Z,1004.50
2023-04-26T06:47:21.854Z,1004.51
2023-04-26T06:48:21.779Z,1004.42
2023-04-26T06:49:21.790Z,1004.48
2023-04-26T06:50:21.758Z,1004.47
2023-04-26T06:51:21.759Z,1004.46
2023-04-26T06:52:21.805Z,1004.47
2023-04-26T06:53:23.152Z,1004.44
2023-04-26T06:54:21.701Z,1004.45
2023-04-26T06:55:21.699Z,1004.50
2023-04-26T06:56:21.690Z,1004.49
2023-04-26T06:57:21.670Z,1004.51
2023-04-26T06:58:21.662Z,1004.43
2023-04-26T06:59:21.641Z,1004.48
2023-04-26T07:00:21.629Z,1004.45
2023-04-26T07:01:21.637Z,1004.46
2023-04-26T07:02:21.754Z,1004.47
2023-04-26T07:03:21.697Z,1004.50
2023-04-26T07:04:21.717Z,1004.55
2023-04-26T07:05:21.811Z,1004.46
2023-04-26T07:06:21.556Z,1004.49
2023-04-26T07:07:21.550Z,1004.41
2023-04-26T07:08:21.518Z,1004.47
2023-04-26T07:09:21.511Z,1004.46
2023-04-26T07:10:21.497Z,1004.48
2023-04-26T07:11:23.329Z,1004.47
2023-04-26T07:12:21.485Z,1004.47
2023-04-26T07:13:21.668Z,1004.43
2023-04-26T07:14:21.438Z,1004.41
2023-04-26T07:15:21.427Z,1004.46
2023-04-26T07:16:21.490Z,1004.48
2023-04-26T07:17:21.398Z,1004.42
2023-04-26T07:18:21.390Z,1004.46
2023-04-26T07:19:21.376Z,1004.42
2023-04-26T07:20:21.359Z,1004.44
2023-04-26T07:21:21.430Z,1004.44
2023-04-26T07:22:21.512Z,1004.50
2023-04-26T07:23:21.341Z,1004.43
2023-04-26T07:24:21.302Z,1004.46
2023-04-26T07:25:21.288Z,1004.40
2023-04-26T07:26:21.282Z,1004.41
2023-04-26T07:27:21.283Z,1004.45
2023-04-26T07:28:21.253Z,1004.42
2023-04-26T07:29:21.240Z,1004.49
2023-04-26T07:30:21.257Z,1004.43
2023-04-26T07:31:21.243Z,1004.48
2023-04-26T07:32:21.240Z,1004.51
2023-04-26T07:33:21.299Z,1004.48
2023-04-26T07:34:21.167Z,1004.48
2023-04-26T07:35:21.156Z,1004.47
2023-04-26T07:36:23.064Z,1004.45
2023-04-26T07:37:21.195Z,1004.44
2023-04-26T07:38:21.118Z,1004.48
2023-04-26T07:39:21.118Z,1004.38
2023-04-26T07:40:21.087Z,1004.36
2023-04-26T07:41:21.101Z,1004.43
2023-04-26T07:42:21.077Z,1004.38
2023-04-26T07:43:21.054Z,1004.35
2023-04-26T07:44:21.034Z,1004.37
2023-04-26T07:45:21.057Z,1004.41
2023-04-26T07:46:21.121Z,1004.39
2023-04-26T07:47:21.010Z,1004.39
2023-04-26T07:48:20.986Z,1004.42
2023-04-26T07:49:20.999Z,1004.40
2023-04-26T07:50:20.964Z,1004.31
2023-04-26T07:51:20.947Z,1004.41
2023-04-26T07:52:20.949Z,1004.45
2023-04-26T07:53:21.042Z,1004.45
2023-04-26T07:54:20.904Z,1004.48
2023-04-26T07:55:20.890Z,1004.52
2023-04-26T07:56:20.885Z,1004.51
2023-04-26T07:57:20.898Z,1004.44
2023-04-26T07:58:20.847Z,1004.39
2023-04-26T07:59:20.840Z,1004.43
2023-04-26T08:00:20.818Z,1004.45
2023-04-26T08:01:20.823Z,1004.34
2023-04-26T08:02:25.084Z,1004.34
2023-04-26T08:03:21.871Z,1004.22
2023-04-26T08:04:20.831Z,1004.21
2023-04-26T08:05:20.969Z,1004.17
2023-04-26T08:06:20.773Z,1004.18
2023-04-26T08:07:20.747Z,1004.22
2023-04-26T08:08:20.716Z,1004.26
2023-04-26T08:09:20.734Z,1004.26
2023-04-26T08:10:20.705Z,1004.35
2023-04-26T08:11:20.758Z,1004.35
2023-04-26T08:12:20.681Z,1004.29
2023-04-26T08:13:20.650Z,1004.21
2023-04-26T08:14:20.637Z,1004.25
2023-04-26T08:15:20.660Z,1004.24
2023-04-26T08:16:20.713Z,1004.20
2023-04-26T08:17:20.675Z,1004.48
2023-04-26T08:18:20.603Z,1004.49
2023-04-26T08:19:20.566Z,1004.33
2023-04-26T08:20:20.558Z,1004.39
2023-04-26T08:21:20.538Z,1004.36
2023-04-26T08:22:20.557Z,1004.40
2023-04-26T08:23:20.509Z,1004.37
2023-04-26T08:24:20.500Z,1004.28
2023-04-26T08:25:20.598Z,1004.31
2023-04-26T08:26:20.476Z,1004.30
2023-04-26T08:27:20.466Z,1004.51
2023-04-26T08:28:20.459Z,1004.46
2023-04-26T08:29:20.439Z,1004.51
2023-04-26T08:30:20.421Z,1004.57
2023-04-26T08:31:20.423Z,1004.49
2023-04-26T08:32:20.407Z,1004.56
2023-04-26T08:33:20.397Z,1004.53
2023-04-26T08:34:20.369Z,1004.50
2023-04-26T08:35:20.360Z,1004.40
2023-04-26T08:36:20.340Z,1004.44
2023-04-26T08:37:20.327Z,1004.45
2023-04-26T08:38:20.341Z,1004.52
2023-04-26T08:39:20.301Z,1004.48
2023-04-26T08:40:20.296Z,1004.28
2023-04-26T08:41:20.305Z,1004.23
2023-04-26T08:42:20.263Z,1004.22
2023-04-26T08:43:20.263Z,1004.32
2023-04-26T08:44:20.230Z,1004.26
2023-04-26T08:45:20.223Z,1004.24
2023-04-26T08:46:20.240Z,1004.25
2023-04-26T08:47:20.194Z,1004.23
2023-04-26T08:48:20.207Z,1004.27
2023-04-26T08:49:20.172Z,1004.30
2023-04-26T08:50:20.157Z,1004.41
2023-04-26T08:51:20.151Z,1004.37
2023-04-26T08:52:20.157Z,1004.27
2023-04-26T08:53:20.156Z,1004.38
2023-04-26T08:54:20.102Z,1004.33
2023-04-26T08:55:20.304Z,1004.38
2023-04-26T08:56:20.079Z,1004.37
2023-04-26T08:57:20.103Z,1004.42
2023-04-26T08:58:20.074Z,1004.28
2023-04-26T08:59:20.055Z,1004.29
2023-04-26T09:00:20.028Z,1004.43
2023-04-26T09:01:20.047Z,1004.38
2023-04-26T09:02:20.097Z,1004.41
2023-04-26T09:03:20.182Z,1004.40
2023-04-26T09:04:20.357Z,1004.47
2023-04-26T09:05:19.959Z,1004.37
2023-04-26T09:06:19.955Z,1004.49
2023-04-26T09:07:19.936Z,1004.37
2023-04-26T09:08:19.944Z,1004.44
2023-04-26T09:09:19.910Z,1004.20
2023-04-26T09:10:19.898Z,1004.12
2023-04-26T09:11:19.881Z,1004.19
2023-04-26T09:12:19.869Z,1004.11
2023-04-26T09:13:19.907Z,1004.09
2023-04-26T09:14:19.840Z,1004.16
2023-04-26T09:15:19.828Z,1004.10
2023-04-26T09:16:19.881Z,1004.14
2023-04-26T09:17:19.840Z,1004.16
2023-04-26T09:18:19.812Z,1004.03
2023-04-26T09:19:19.782Z,1004.11
2023-04-26T09:20:19.765Z,1004.06
2023-04-26T09:21:19.757Z,1004.05
2023-04-26T09:22:19.733Z,1004.12
2023-04-26T09:23:19.746Z,1004.11
2023-04-26T09:24:19.707Z,1004.12
2023-04-26T09:25:19.707Z,1004.13
2023-04-26T09:26:19.681Z,1004.13
2023-04-26T09:27:19.674Z,1004.18
2023-04-26T09:28:19.674Z,1004.10
2023-04-26T09:29:19.699Z,1004.22
2023-04-26T09:30:19.666Z,1004.24
2023-04-26T09:31:19.627Z,1004.21
2023-04-26T09:32:19.598Z,1004.19
2023-04-26T09:33:19.682Z,1004.14
2023-04-26T09:34:19.574Z,1004.27
2023-04-26T09:35:19.560Z,1004.23
2023-04-26T09:36:19.544Z,1004.22
2023-04-26T09:37:19.535Z,1004.29
2023-04-26T09:38:19.534Z,1004.24
2023-04-26T09:39:19.503Z,1004.18
2023-04-26T09:40:19.580Z,1004.10
2023-04-26T09:41:19.480Z,1004.09
2023-04-26T09:42:19.461Z,1004.08
2023-04-26T09:43:19.471Z,1004.08
2023-04-26T09:44:19.437Z,1004.12
2023-04-26T09:45:19.449Z,1004.10
2023-04-26T09:46:19.422Z,1004.09
2023-04-26T09:47:19.395Z,1004.15
2023-04-26T09:48:19.399Z,1004.15
2023-04-26T09:49:19.374Z,1004.18
2023-04-26T09:50:19.373Z,1004.12
2023-04-26T09:51:19.347Z,1004.19
2023-04-26T09:52:19.382Z,1004.10
2023-04-26T09:53:19.333Z,1004.15
2023-04-26T09:54:19.300Z,1004.13
2023-04-26T09:55:34.198Z,1004.08
2023-04-26T09:56:19.279Z,1004.12
2023-04-26T09:57:19.263Z,1004.19
2023-04-26T09:58:19.265Z,1004.20
2023-04-26T09:59:19.235Z,1004.24
2023-04-26T10:00:19.221Z,1004.29
2023-04-26T10:01:19.364Z,1004.29
2023-04-26T10:02:19.242Z,1004.21
2023-04-26T10:03:19.439Z,1004.16
2023-04-26T10:04:19.310Z,1004.14
2023-04-26T10:05:19.157Z,1004.10
2023-04-26T10:06:19.140Z,1004.09
2023-04-26T10:07:19.170Z,1004.04
2023-04-26T10:08:19.141Z,1004.01
2023-04-26T10:09:19.112Z,1004.07
2023-04-26T10:10:19.176Z,1004.01
2023-04-26T10:11:19.084Z,1004.02
2023-04-26T10:12:19.077Z,1004.06
2023-04-26T10:13:19.081Z,1004.04
2023-04-26T10:14:19.045Z,1004.26
2023-04-26T10:15:19.035Z,1004.08
2023-04-26T10:16:19.020Z,1004.16
2023-04-26T10:17:19.090Z,1004.13
2023-04-26T10:18:18.998Z,1004.13
2023-04-26T10:19:18.999Z,1004.13
2023-04-26T10:20:18.956Z,1004.13
2023-04-26T10:21:18.951Z,1004.19
2023-04-26T10:22:18.939Z,1004.18
2023-04-26T10:23:18.928Z,1004.09
2023-04-26T10:24:18.919Z,1004.12
2023-04-26T10:25:18.897Z,1004.04
2023-04-26T10:26:18.883Z,1004.02
2023-04-26T10:27:18.868Z,1004.06
2023-04-26T10:28:18.886Z,1004.06
2023-04-26T10:29:18.882Z,1003.98
2023-04-26T10:30:18.830Z,1004.03
2023-04-26T10:31:18.851Z,1003.98
2023-04-26T10:32:18.843Z,1004.01
2023-04-26T10:33:18.867Z,1004.06
2023-04-26T10:34:18.788Z,1004.03
2023-04-26T10:35:18.767Z,1003.86
2023-04-26T10:36:18.752Z,1004.01
2023-04-26T10:37:18.736Z,1003.84
2023-04-26T10:38:18.723Z,1003.87
2023-04-26T10:39:18.732Z,1003.79
2023-04-26T10:40:18.698Z,1003.78
2023-04-26T10:41:18.693Z,1003.71
2023-04-26T10:42:18.672Z,1003.79
2023-04-26T10:43:18.662Z,1003.85
2023-04-26T10:44:18.663Z,1003.71
2023-04-26T10:45:18.645Z,1003.71
2023-04-26T10:46:18.658Z,1003.67
2023-04-26T10:47:18.629Z,1003.76
2023-04-26T10:48:18.639Z,1003.68
2023-04-26T10:49:18.620Z,1003.72
2023-04-26T10:50:18.589Z,1003.73
2023-04-26T10:51:18.553Z,1003.73
2023-04-26T10:52:18.543Z,1003.68
2023-04-26T10:53:18.530Z,1003.77
2023-04-26T10:54:18.532Z,1003.71
2023-04-26T10:55:18.506Z,1003.74
2023-04-26T10:56:18.493Z,1003.85
2023-04-26T10:57:18.477Z,1003.83
2023-04-26T10:58:18.461Z,1003.79
2023-04-26T10:59:36.292Z,1003.78
2023-04-26T11:00:18.445Z,1003.79
2023-04-26T11:01:18.448Z,1003.69
2023-04-26T11:02:18.439Z,1003.79
2023-04-26T11:03:18.486Z,1003.68
2023-04-26T11:04:18.495Z,1003.72
2023-04-26T11:05:18.406Z,1003.80
2023-04-26T11:06:18.362Z,1003.79
2023-04-26T11:07:18.345Z,1003.74
2023-04-26T11:08:18.340Z,1003.78
2023-04-26T11:09:18.336Z,1003.69
2023-04-26T11:10:18.314Z,1003.56
2023-04-26T11:11:18.286Z,1003.60
2023-04-26T11:12:18.276Z,1003.61
2023-04-26T11:13:18.270Z,1003.55
2023-04-26T11:14:18.268Z,1003.52
2023-04-26T11:15:18.233Z,1003.53
2023-04-26T11:16:18.287Z,1003.44
2023-04-26T11:17:18.231Z,1003.50
2023-04-26T11:18:18.196Z,1003.42
2023-04-26T11:19:18.196Z,1003.42
2023-04-26T11:20:18.191Z,1003.39
2023-04-26T11:21:18.393Z,1003.38
2023-04-26T11:22:18.150Z,1003.42
2023-04-26T11:23:18.133Z,1003.37
2023-04-26T11:24:18.130Z,1003.37
2023-04-26T11:25:18.100Z,1003.41
2023-04-26T11:26:18.094Z,1003.33
2023-04-26T11:27:18.099Z,1003.43
2023-04-26T11:28:18.062Z,1003.33
2023-04-26T11:29:18.065Z,1003.41
2023-04-26T11:30:18.034Z,1003.45
2023-04-26T11:31:18.032Z,1003.40
2023-04-26T11:32:18.014Z,1003.42
2023-04-26T11:33:18.010Z,1003.38
2023-04-26T11:34:18.009Z,1003.46
2023-04-26T11:35:17.969Z,1003.34
2023-04-26T11:36:17.959Z,1003.40
2023-04-26T11:37:17.974Z,1003.40
2023-04-26T11:38:17.935Z,1003.41
2023-04-26T11:39:17.930Z,1003.35
2023-04-26T11:40:17.907Z,1003.33
2023-04-26T11:41:17.889Z,1003.39
2023-04-26T11:42:17.891Z,1003.36
2023-04-26T11:43:17.911Z,1003.38
2023-04-26T11:44:17.872Z,1003.38
2023-04-26T11:45:17.840Z,1003.39
2023-04-26T11:46:17.867Z,1003.39
2023-04-26T11:47:17.808Z,1003.33
2023-04-26T11:48:17.884Z,1003.35
2023-04-26T11:49:17.804Z,1003.31
2023-04-26T11:50:17.770Z,1003.33
2023-04-26T11:51:17.757Z,1003.37
2023-04-26T11:52:17.748Z,1003.34
2023-04-26T11:53:17.793Z,1003.35
2023-04-26T11:54:17.734Z,1003.39
2023-04-26T11:55:17.703Z,1003.36
2023-04-26T11:56:17.794Z,1003.44
2023-04-26T11:57:18.183Z,1003.39
2023-04-26T11:58:17.668Z,1003.43
2023-04-26T11:59:17.671Z,1003.43
2023-04-26T12:00:17.658Z,1003.49
2023-04-26T12:01:17.621Z,1003.40
2023-04-26T12:02:17.683Z,1003.41
2023-04-26T12:03:17.922Z,1003.39
2023-04-26T12:04:17.842Z,1003.45
2023-04-26T12:05:17.627Z,1003.38